sensor_id;sensor_type;location;lat;lon;timestamp;P1;durP1;ratioP1;P2;durP2;ratioP2
49237;SDS011;35069;47.906;1.892;2022-11-27T00:00:16;22.20;;;10.93;;
49237;SDS011;35069;47.906;1.892;2022-11-27T00:02:42;24.20;;;11.32;;
49237;SDS011;35069;47.906;1.892;2022-11-27T00:05:07;36.08;;;13.68;;
49237;SDS011;35069;47.906;1.892;2022-11-27T00:07:33;24.05;;;11.32;;
49237;SDS011;35069;47.906;1.892;2022-11-27T00:09:59;25.38;;;12.25;;
49237;SDS011;35069;47.906;1.892;2022-11-27T00:12:24;23.60;;;11.77;;
49237;SDS011;35069;47.906;1.892;2022-11-27T00:14:50;24.63;;;10.43;;
49237;SDS011;35069;47.906;1.892;2022-11-27T00:17:16;23.52;;;11.32;;
49237;SDS011;35069;47.906;1.892;2022-11-27T00:19:41;20.13;;;10.63;;
49237;SDS011;35069;47.906;1.892;2022-11-27T00:22:07;22.08;;;10.43;;
49237;SDS011;35069;47.906;1.892;2022-11-27T00:24:33;24.05;;;11.23;;
49237;SDS011;35069;47.906;1.892;2022-11-27T00:26:58;29.77;;;11.25;;
49237;SDS011;35069;47.906;1.892;2022-11-27T00:29:24;24.33;;;11.13;;
49237;SDS011;35069;47.906;1.892;2022-11-27T00:31:53;25.08;;;10.95;;
49237;SDS011;35069;47.906;1.892;2022-11-27T00:34:20;19.73;;;10.45;;
49237;SDS011;35069;47.906;1.892;2022-11-27T00:36:46;19.33;;;11.10;;
49237;SDS011;35069;47.906;1.892;2022-11-27T00:39:12;24.10;;;11.52;;
49237;SDS011;35069;47.906;1.892;2022-11-27T00:41:37;28.63;;;11.15;;
49237;SDS011;35069;47.906;1.892;2022-11-27T00:44:04;18.33;;;10.93;;
49237;SDS011;35069;47.906;1.892;2022-11-27T00:46:31;19.63;;;10.70;;
49237;SDS011;35069;47.906;1.892;2022-11-27T00:48:58;16.73;;;10.77;;
49237;SDS011;35069;47.906;1.892;2022-11-27T00:51:26;22.52;;;10.55;;
49237;SDS011;35069;47.906;1.892;2022-11-27T00:53:53;20.90;;;10.52;;
49237;SDS011;35069;47.906;1.892;2022-11-27T00:56:20;19.38;;;10.32;;
49237;SDS011;35069;47.906;1.892;2022-11-27T00:58:51;17.13;;;10.90;;
49237;SDS011;35069;47.906;1.892;2022-11-27T01:01:18;23.88;;;9.45;;
49237;SDS011;35069;47.906;1.892;2022-11-27T01:03:46;19.40;;;11.23;;
49237;SDS011;35069;47.906;1.892;2022-11-27T01:06:12;26.33;;;9.48;;
49237;SDS011;35069;47.906;1.892;2022-11-27T01:08:39;15.82;;;9.80;;
49237;SDS011;35069;47.906;1.892;2022-11-27T01:11:06;18.85;;;9.65;;
49237;SDS011;35069;47.906;1.892;2022-11-27T01:13:33;23.73;;;11.18;;
49237;SDS011;35069;47.906;1.892;2022-11-27T01:18:26;21.92;;;10.25;;
49237;SDS011;35069;47.906;1.892;2022-11-27T01:20:52;19.38;;;9.95;;
49237;SDS011;35069;47.906;1.892;2022-11-27T01:23:19;18.40;;;8.82;;
49237;SDS011;35069;47.906;1.892;2022-11-27T01:25:45;17.20;;;9.20;;
49237;SDS011;35069;47.906;1.892;2022-11-27T01:28:11;17.73;;;9.05;;
49237;SDS011;35069;47.906;1.892;2022-11-27T01:30:37;22.95;;;10.02;;
49237;SDS011;35069;47.906;1.892;2022-11-27T01:33:03;22.63;;;10.48;;
49237;SDS011;35069;47.906;1.892;2022-11-27T01:35:29;18.45;;;8.90;;
49237;SDS011;35069;47.906;1.892;2022-11-27T01:37:54;13.05;;;7.53;;
49237;SDS011;35069;47.906;1.892;2022-11-27T01:40:20;19.27;;;8.60;;
49237;SDS011;35069;47.906;1.892;2022-11-27T01:42:46;17.52;;;8.30;;
49237;SDS011;35069;47.906;1.892;2022-11-27T01:45:13;15.90;;;8.85;;
49237;SDS011;35069;47.906;1.892;2022-11-27T01:47:43;16.10;;;9.05;;
49237;SDS011;35069;47.906;1.892;2022-11-27T01:50:21;13.68;;;8.52;;
49237;SDS011;35069;47.906;1.892;2022-11-27T01:52:51;15.10;;;7.40;;
49237;SDS011;35069;47.906;1.892;2022-11-27T01:55:24;18.25;;;8.40;;
49237;SDS011;35069;47.906;1.892;2022-11-27T01:57:59;17.27;;;7.85;;
49237;SDS011;35069;47.906;1.892;2022-11-27T02:00:29;17.45;;;8.63;;
49237;SDS011;35069;47.906;1.892;2022-11-27T02:02:55;22.63;;;8.82;;
49237;SDS011;35069;47.906;1.892;2022-11-27T02:05:22;19.10;;;8.35;;
49237;SDS011;35069;47.906;1.892;2022-11-27T02:07:50;13.25;;;7.47;;
49237;SDS011;35069;47.906;1.892;2022-11-27T02:10:17;17.25;;;8.70;;
49237;SDS011;35069;47.906;1.892;2022-11-27T02:12:56;15.05;;;8.45;;
49237;SDS011;35069;47.906;1.892;2022-11-27T02:15:33;16.40;;;9.18;;
49237;SDS011;35069;47.906;1.892;2022-11-27T02:18:22;15.93;;;7.25;;
49237;SDS011;35069;47.906;1.892;2022-11-27T02:21:10;15.07;;;8.15;;
49237;SDS011;35069;47.906;1.892;2022-11-27T02:23:51;20.85;;;8.27;;
49237;SDS011;35069;47.906;1.892;2022-11-27T02:29:21;20.55;;;7.78;;
49237;SDS011;35069;47.906;1.892;2022-11-27T02:31:55;13.95;;;7.78;;
49237;SDS011;35069;47.906;1.892;2022-11-27T02:37:52;14.73;;;8.18;;
49237;SDS011;35069;47.906;1.892;2022-11-27T02:43:29;16.92;;;6.93;;
49237;SDS011;35069;47.906;1.892;2022-11-27T02:46:00;18.13;;;7.82;;
49237;SDS011;35069;47.906;1.892;2022-11-27T02:48:30;17.40;;;6.68;;
49237;SDS011;35069;47.906;1.892;2022-11-27T02:51:00;14.50;;;5.88;;
49237;SDS011;35069;47.906;1.892;2022-11-27T02:53:31;10.95;;;5.85;;
49237;SDS011;35069;47.906;1.892;2022-11-27T02:56:02;15.73;;;7.35;;
49237;SDS011;35069;47.906;1.892;2022-11-27T02:58:32;11.82;;;6.18;;
49237;SDS011;35069;47.906;1.892;2022-11-27T03:01:00;12.02;;;6.35;;
49237;SDS011;35069;47.906;1.892;2022-11-27T03:03:31;12.50;;;5.40;;
49237;SDS011;35069;47.906;1.892;2022-11-27T03:06:02;12.20;;;5.78;;
49237;SDS011;35069;47.906;1.892;2022-11-27T03:11:13;12.35;;;5.50;;
49237;SDS011;35069;47.906;1.892;2022-11-27T03:13:41;13.32;;;5.65;;
49237;SDS011;35069;47.906;1.892;2022-11-27T03:24:17;12.88;;;5.20;;
49237;SDS011;35069;47.906;1.892;2022-11-27T03:26:43;12.63;;;5.28;;
49237;SDS011;35069;47.906;1.892;2022-11-27T03:29:11;9.25;;;4.82;;
49237;SDS011;35069;47.906;1.892;2022-11-27T03:31:42;14.00;;;4.93;;
49237;SDS011;35069;47.906;1.892;2022-11-27T03:34:08;15.38;;;5.07;;
49237;SDS011;35069;47.906;1.892;2022-11-27T03:36:34;11.75;;;5.03;;
49237;SDS011;35069;47.906;1.892;2022-11-27T03:39:00;11.68;;;4.70;;
49237;SDS011;35069;47.906;1.892;2022-11-27T03:46:36;15.30;;;5.85;;
49237;SDS011;35069;47.906;1.892;2022-11-27T03:49:17;12.20;;;6.72;;
49237;SDS011;35069;47.906;1.892;2022-11-27T03:52:15;12.05;;;5.38;;
49237;SDS011;35069;47.906;1.892;2022-11-27T03:57:56;15.52;;;5.18;;
49237;SDS011;35069;47.906;1.892;2022-11-27T04:00:24;7.15;;;5.40;;
49237;SDS011;35069;47.906;1.892;2022-11-27T04:02:54;10.10;;;4.50;;
49237;SDS011;35069;47.906;1.892;2022-11-27T04:05:20;9.55;;;5.13;;
49237;SDS011;35069;47.906;1.892;2022-11-27T04:07:46;15.40;;;8.32;;
49237;SDS011;35069;47.906;1.892;2022-11-27T04:10:11;16.98;;;6.68;;
49237;SDS011;35069;47.906;1.892;2022-11-27T04:12:38;11.82;;;5.18;;
49237;SDS011;35069;47.906;1.892;2022-11-27T04:15:04;14.48;;;5.18;;
49237;SDS011;35069;47.906;1.892;2022-11-27T04:17:31;13.90;;;5.97;;
49237;SDS011;35069;47.906;1.892;2022-11-27T04:19:57;8.05;;;5.53;;
49237;SDS011;35069;47.906;1.892;2022-11-27T04:22:22;11.30;;;5.00;;
49237;SDS011;35069;47.906;1.892;2022-11-27T04:24:48;10.55;;;5.03;;
49237;SDS011;35069;47.906;1.892;2022-11-27T04:27:14;12.45;;;4.97;;
49237;SDS011;35069;47.906;1.892;2022-11-27T04:29:40;16.48;;;5.70;;
49237;SDS011;35069;47.906;1.892;2022-11-27T04:32:05;9.43;;;4.65;;
49237;SDS011;35069;47.906;1.892;2022-11-27T04:34:31;14.63;;;6.45;;
49237;SDS011;35069;47.906;1.892;2022-11-27T04:36:57;21.48;;;5.40;;
49237;SDS011;35069;47.906;1.892;2022-11-27T04:39:23;8.65;;;4.15;;
49237;SDS011;35069;47.906;1.892;2022-11-27T04:41:48;12.13;;;4.82;;
49237;SDS011;35069;47.906;1.892;2022-11-27T04:44:14;7.10;;;4.38;;
49237;SDS011;35069;47.906;1.892;2022-11-27T04:46:40;14.27;;;7.07;;
49237;SDS011;35069;47.906;1.892;2022-11-27T04:49:08;8.07;;;4.55;;
49237;SDS011;35069;47.906;1.892;2022-11-27T04:51:34;5.38;;;4.10;;
49237;SDS011;35069;47.906;1.892;2022-11-27T04:53:59;12.27;;;4.45;;
49237;SDS011;35069;47.906;1.892;2022-11-27T04:56:25;8.82;;;4.47;;
49237;SDS011;35069;47.906;1.892;2022-11-27T04:58:50;6.63;;;4.07;;
49237;SDS011;35069;47.906;1.892;2022-11-27T05:01:16;13.65;;;5.43;;
49237;SDS011;35069;47.906;1.892;2022-11-27T05:03:42;7.13;;;4.10;;
49237;SDS011;35069;47.906;1.892;2022-11-27T05:06:07;11.07;;;4.68;;
49237;SDS011;35069;47.906;1.892;2022-11-27T05:08:33;12.57;;;5.15;;
49237;SDS011;35069;47.906;1.892;2022-11-27T05:13:29;9.15;;;3.92;;
49237;SDS011;35069;47.906;1.892;2022-11-27T05:15:55;8.88;;;3.80;;
49237;SDS011;35069;47.906;1.892;2022-11-27T05:18:21;13.70;;;4.70;;
49237;SDS011;35069;47.906;1.892;2022-11-27T05:20:47;7.68;;;4.30;;
49237;SDS011;35069;47.906;1.892;2022-11-27T05:23:19;6.15;;;3.65;;
49237;SDS011;35069;47.906;1.892;2022-11-27T05:25:44;10.23;;;4.50;;
49237;SDS011;35069;47.906;1.892;2022-11-27T05:28:10;8.10;;;3.88;;
49237;SDS011;35069;47.906;1.892;2022-11-27T05:30:36;7.57;;;3.75;;
49237;SDS011;35069;47.906;1.892;2022-11-27T05:33:01;12.38;;;4.38;;
49237;SDS011;35069;47.906;1.892;2022-11-27T05:35:27;10.80;;;3.70;;
49237;SDS011;35069;47.906;1.892;2022-11-27T05:37:52;10.68;;;3.28;;
49237;SDS011;35069;47.906;1.892;2022-11-27T05:40:18;14.02;;;4.85;;
49237;SDS011;35069;47.906;1.892;2022-11-27T05:42:44;13.30;;;5.68;;
49237;SDS011;35069;47.906;1.892;2022-11-27T05:45:09;11.45;;;4.85;;
49237;SDS011;35069;47.906;1.892;2022-11-27T05:47:35;10.88;;;3.70;;
49237;SDS011;35069;47.906;1.892;2022-11-27T05:50:01;6.43;;;3.85;;
49237;SDS011;35069;47.906;1.892;2022-11-27T05:52:26;5.38;;;3.92;;
49237;SDS011;35069;47.906;1.892;2022-11-27T05:54:52;6.72;;;4.13;;
49237;SDS011;35069;47.906;1.892;2022-11-27T05:57:19;11.48;;;3.95;;
49237;SDS011;35069;47.906;1.892;2022-11-27T05:59:44;10.73;;;3.90;;
49237;SDS011;35069;47.906;1.892;2022-11-27T06:02:10;12.73;;;3.90;;
49237;SDS011;35069;47.906;1.892;2022-11-27T06:04:35;6.15;;;3.90;;
49237;SDS011;35069;47.906;1.892;2022-11-27T06:07:01;12.02;;;3.13;;
49237;SDS011;35069;47.906;1.892;2022-11-27T06:09:27;10.68;;;4.30;;
49237;SDS011;35069;47.906;1.892;2022-11-27T06:11:52;7.10;;;3.45;;
49237;SDS011;35069;47.906;1.892;2022-11-27T06:14:18;15.55;;;4.00;;
49237;SDS011;35069;47.906;1.892;2022-11-27T06:16:44;9.45;;;3.15;;
49237;SDS011;35069;47.906;1.892;2022-11-27T06:19:09;9.63;;;4.28;;
49237;SDS011;35069;47.906;1.892;2022-11-27T06:21:35;9.93;;;3.75;;
49237;SDS011;35069;47.906;1.892;2022-11-27T06:24:01;6.57;;;3.92;;
49237;SDS011;35069;47.906;1.892;2022-11-27T06:26:28;10.75;;;4.10;;
49237;SDS011;35069;47.906;1.892;2022-11-27T06:28:58;6.43;;;3.10;;
49237;SDS011;35069;47.906;1.892;2022-11-27T06:31:26;5.30;;;3.30;;
49237;SDS011;35069;47.906;1.892;2022-11-27T06:33:54;9.32;;;4.15;;
49237;SDS011;35069;47.906;1.892;2022-11-27T06:36:21;10.98;;;4.60;;
49237;SDS011;35069;47.906;1.892;2022-11-27T06:38:48;14.43;;;3.63;;
49237;SDS011;35069;47.906;1.892;2022-11-27T06:41:15;5.32;;;3.13;;
49237;SDS011;35069;47.906;1.892;2022-11-27T06:43:42;6.25;;;3.53;;
49237;SDS011;35069;47.906;1.892;2022-11-27T06:46:10;10.07;;;3.53;;
49237;SDS011;35069;47.906;1.892;2022-11-27T06:48:39;10.88;;;4.70;;
49237;SDS011;35069;47.906;1.892;2022-11-27T06:51:05;10.52;;;3.67;;
49237;SDS011;35069;47.906;1.892;2022-11-27T06:53:35;8.70;;;3.60;;
49237;SDS011;35069;47.906;1.892;2022-11-27T06:56:01;9.02;;;4.75;;
49237;SDS011;35069;47.906;1.892;2022-11-27T06:58:32;6.55;;;3.70;;
49237;SDS011;35069;47.906;1.892;2022-11-27T07:00:58;7.97;;;3.67;;
49237;SDS011;35069;47.906;1.892;2022-11-27T07:03:26;9.63;;;3.65;;
49237;SDS011;35069;47.906;1.892;2022-11-27T07:05:52;10.00;;;3.83;;
49237;SDS011;35069;47.906;1.892;2022-11-27T07:08:18;18.08;;;4.80;;
49237;SDS011;35069;47.906;1.892;2022-11-27T07:10:44;8.85;;;3.60;;
49237;SDS011;35069;47.906;1.892;2022-11-27T07:13:10;6.78;;;3.30;;
49237;SDS011;35069;47.906;1.892;2022-11-27T07:15:35;7.15;;;3.22;;
49237;SDS011;35069;47.906;1.892;2022-11-27T07:18:01;9.50;;;3.42;;
49237;SDS011;35069;47.906;1.892;2022-11-27T07:20:27;6.15;;;3.90;;
49237;SDS011;35069;47.906;1.892;2022-11-27T07:22:54;8.77;;;3.30;;
49237;SDS011;35069;47.906;1.892;2022-11-27T07:25:19;4.70;;;2.80;;
49237;SDS011;35069;47.906;1.892;2022-11-27T07:27:45;10.60;;;3.58;;
49237;SDS011;35069;47.906;1.892;2022-11-27T07:30:11;11.45;;;4.55;;
49237;SDS011;35069;47.906;1.892;2022-11-27T07:32:37;11.35;;;4.95;;
49237;SDS011;35069;47.906;1.892;2022-11-27T07:35:03;7.25;;;4.13;;
49237;SDS011;35069;47.906;1.892;2022-11-27T07:37:30;10.68;;;4.45;;
49237;SDS011;35069;47.906;1.892;2022-11-27T07:39:56;8.95;;;4.18;;
49237;SDS011;35069;47.906;1.892;2022-11-27T07:42:22;6.00;;;3.83;;
49237;SDS011;35069;47.906;1.892;2022-11-27T07:44:48;8.80;;;4.07;;
49237;SDS011;35069;47.906;1.892;2022-11-27T07:47:13;10.82;;;4.47;;
49237;SDS011;35069;47.906;1.892;2022-11-27T07:49:39;12.27;;;4.50;;
49237;SDS011;35069;47.906;1.892;2022-11-27T07:52:04;10.75;;;3.33;;
49237;SDS011;35069;47.906;1.892;2022-11-27T07:54:30;6.15;;;3.78;;
49237;SDS011;35069;47.906;1.892;2022-11-27T07:56:56;4.93;;;3.38;;
49237;SDS011;35069;47.906;1.892;2022-11-27T07:59:21;9.57;;;3.47;;
49237;SDS011;35069;47.906;1.892;2022-11-27T08:01:47;11.60;;;3.83;;
49237;SDS011;35069;47.906;1.892;2022-11-27T08:04:13;5.40;;;3.47;;
49237;SDS011;35069;47.906;1.892;2022-11-27T08:06:38;5.15;;;3.10;;
49237;SDS011;35069;47.906;1.892;2022-11-27T08:09:04;8.85;;;2.60;;
49237;SDS011;35069;47.906;1.892;2022-11-27T08:11:30;10.88;;;4.60;;
49237;SDS011;35069;47.906;1.892;2022-11-27T08:14:03;6.20;;;3.60;;
49237;SDS011;35069;47.906;1.892;2022-11-27T08:16:31;3.83;;;3.42;;
49237;SDS011;35069;47.906;1.892;2022-11-27T08:18:57;7.78;;;3.63;;
49237;SDS011;35069;47.906;1.892;2022-11-27T08:21:23;6.20;;;3.60;;
49237;SDS011;35069;47.906;1.892;2022-11-27T08:23:49;8.63;;;4.20;;
49237;SDS011;35069;47.906;1.892;2022-11-27T08:26:15;7.55;;;5.38;;
49237;SDS011;35069;47.906;1.892;2022-11-27T08:28:40;11.30;;;5.03;;
49237;SDS011;35069;47.906;1.892;2022-11-27T08:31:07;6.43;;;4.95;;
49237;SDS011;35069;47.906;1.892;2022-11-27T08:33:37;9.43;;;3.88;;
49237;SDS011;35069;47.906;1.892;2022-11-27T08:36:06;12.67;;;4.33;;
49237;SDS011;35069;47.906;1.892;2022-11-27T08:38:32;7.53;;;3.88;;
49237;SDS011;35069;47.906;1.892;2022-11-27T08:40:59;5.32;;;3.67;;
49237;SDS011;35069;47.906;1.892;2022-11-27T08:43:27;8.15;;;4.10;;
49237;SDS011;35069;47.906;1.892;2022-11-27T08:45:53;10.88;;;3.45;;
49237;SDS011;35069;47.906;1.892;2022-11-27T08:48:20;6.97;;;3.80;;
49237;SDS011;35069;47.906;1.892;2022-11-27T08:50:47;7.85;;;3.28;;
49237;SDS011;35069;47.906;1.892;2022-11-27T08:53:13;6.68;;;3.83;;
49237;SDS011;35069;47.906;1.892;2022-11-27T08:55:43;6.35;;;3.45;;
49237;SDS011;35069;47.906;1.892;2022-11-27T08:58:09;10.88;;;4.40;;
49237;SDS011;35069;47.906;1.892;2022-11-27T09:00:35;7.80;;;3.42;;
49237;SDS011;35069;47.906;1.892;2022-11-27T09:03:02;7.68;;;4.28;;
49237;SDS011;35069;47.906;1.892;2022-11-27T09:05:29;7.78;;;4.28;;
49237;SDS011;35069;47.906;1.892;2022-11-27T09:07:55;12.80;;;5.63;;
49237;SDS011;35069;47.906;1.892;2022-11-27T09:10:22;10.07;;;4.88;;
49237;SDS011;35069;47.906;1.892;2022-11-27T09:12:48;7.28;;;4.40;;
49237;SDS011;35069;47.906;1.892;2022-11-27T09:15:14;10.48;;;5.72;;
49237;SDS011;35069;47.906;1.892;2022-11-27T09:17:41;10.85;;;4.82;;
49237;SDS011;35069;47.906;1.892;2022-11-27T09:20:07;6.82;;;3.97;;
49237;SDS011;35069;47.906;1.892;2022-11-27T09:22:34;11.38;;;4.07;;
49237;SDS011;35069;47.906;1.892;2022-11-27T09:25:00;13.85;;;5.38;;
49237;SDS011;35069;47.906;1.892;2022-11-27T09:27:26;10.90;;;4.15;;
49237;SDS011;35069;47.906;1.892;2022-11-27T09:29:51;11.98;;;5.60;;
49237;SDS011;35069;47.906;1.892;2022-11-27T09:32:17;7.93;;;3.88;;
49237;SDS011;35069;47.906;1.892;2022-11-27T09:34:43;6.75;;;4.38;;
49237;SDS011;35069;47.906;1.892;2022-11-27T09:37:09;15.77;;;3.88;;
49237;SDS011;35069;47.906;1.892;2022-11-27T09:39:35;7.68;;;3.65;;
49237;SDS011;35069;47.906;1.892;2022-11-27T09:42:02;5.80;;;3.30;;
49237;SDS011;35069;47.906;1.892;2022-11-27T09:44:34;6.05;;;3.40;;
49237;SDS011;35069;47.906;1.892;2022-11-27T09:47:12;6.82;;;3.33;;
49237;SDS011;35069;47.906;1.892;2022-11-27T09:49:44;7.90;;;3.75;;
49237;SDS011;35069;47.906;1.892;2022-11-27T09:52:21;6.18;;;3.50;;
49237;SDS011;35069;47.906;1.892;2022-11-27T09:54:54;6.00;;;3.58;;
49237;SDS011;35069;47.906;1.892;2022-11-27T09:57:57;6.15;;;2.97;;
49237;SDS011;35069;47.906;1.892;2022-11-27T10:03:26;9.93;;;3.75;;
49237;SDS011;35069;47.906;1.892;2022-11-27T10:06:01;6.93;;;3.00;;
49237;SDS011;35069;47.906;1.892;2022-11-27T10:11:22;13.07;;;3.80;;
49237;SDS011;35069;47.906;1.892;2022-11-27T10:20:41;4.97;;;2.70;;
49237;SDS011;35069;47.906;1.892;2022-11-27T10:23:17;6.55;;;2.15;;
49237;SDS011;35069;47.906;1.892;2022-11-27T10:25:48;5.40;;;2.53;;
49237;SDS011;35069;47.906;1.892;2022-11-27T10:28:27;8.27;;;2.83;;
49237;SDS011;35069;47.906;1.892;2022-11-27T10:33:46;5.45;;;2.72;;
49237;SDS011;35069;47.906;1.892;2022-11-27T10:39:11;9.82;;;3.15;;
49237;SDS011;35069;47.906;1.892;2022-11-27T10:42:18;3.88;;;2.53;;
49237;SDS011;35069;47.906;1.892;2022-11-27T10:44:58;5.10;;;2.30;;
49237;SDS011;35069;47.906;1.892;2022-11-27T10:47:29;4.38;;;2.20;;
49237;SDS011;35069;47.906;1.892;2022-11-27T10:49:55;3.20;;;2.15;;
49237;SDS011;35069;47.906;1.892;2022-11-27T10:52:21;5.70;;;2.67;;
49237;SDS011;35069;47.906;1.892;2022-11-27T10:54:56;8.48;;;2.40;;
49237;SDS011;35069;47.906;1.892;2022-11-27T11:00:11;7.40;;;2.53;;
49237;SDS011;35069;47.906;1.892;2022-11-27T11:02:39;3.13;;;2.30;;
49237;SDS011;35069;47.906;1.892;2022-11-27T11:07:52;2.75;;;2.40;;
49237;SDS011;35069;47.906;1.892;2022-11-27T11:10:36;3.05;;;2.33;;
49237;SDS011;35069;47.906;1.892;2022-11-27T11:15:46;10.90;;;3.22;;
49237;SDS011;35069;47.906;1.892;2022-11-27T11:18:20;7.38;;;3.67;;
49237;SDS011;35069;47.906;1.892;2022-11-27T11:20:49;5.28;;;2.75;;
49237;SDS011;35069;47.906;1.892;2022-11-27T11:23:30;3.65;;;2.40;;
49237;SDS011;35069;47.906;1.892;2022-11-27T11:25:59;6.97;;;2.30;;
49237;SDS011;35069;47.906;1.892;2022-11-27T11:28:33;4.35;;;2.28;;
49237;SDS011;35069;47.906;1.892;2022-11-27T11:31:12;4.38;;;2.72;;
49237;SDS011;35069;47.906;1.892;2022-11-27T11:33:50;5.40;;;2.72;;
49237;SDS011;35069;47.906;1.892;2022-11-27T11:36:19;6.45;;;2.35;;
49237;SDS011;35069;47.906;1.892;2022-11-27T11:38:45;3.05;;;2.50;;
49237;SDS011;35069;47.906;1.892;2022-11-27T11:41:11;10.43;;;2.75;;
49237;SDS011;35069;47.906;1.892;2022-11-27T11:43:41;5.07;;;3.10;;
49237;SDS011;35069;47.906;1.892;2022-11-27T11:46:18;5.97;;;2.95;;
49237;SDS011;35069;47.906;1.892;2022-11-27T11:48:54;8.65;;;4.05;;
49237;SDS011;35069;47.906;1.892;2022-11-27T11:54:08;7.32;;;4.10;;
49237;SDS011;35069;47.906;1.892;2022-11-27T11:59:35;4.00;;;2.10;;
49237;SDS011;35069;47.906;1.892;2022-11-27T12:05:30;6.93;;;2.30;;
49237;SDS011;35069;47.906;1.892;2022-11-27T12:08:26;4.68;;;2.83;;
49237;SDS011;35069;47.906;1.892;2022-11-27T12:16:15;7.20;;;2.92;;
49237;SDS011;35069;47.906;1.892;2022-11-27T12:22:00;5.25;;;2.53;;
49237;SDS011;35069;47.906;1.892;2022-11-27T12:24:34;5.85;;;2.58;;
49237;SDS011;35069;47.906;1.892;2022-11-27T12:43:21;6.15;;;2.20;;
49237;SDS011;35069;47.906;1.892;2022-11-27T12:45:52;7.10;;;2.83;;
49237;SDS011;35069;47.906;1.892;2022-11-27T12:50:59;5.25;;;2.58;;
49237;SDS011;35069;47.906;1.892;2022-11-27T12:53:35;10.57;;;5.82;;
49237;SDS011;35069;47.906;1.892;2022-11-27T12:56:29;3.30;;;2.58;;
49237;SDS011;35069;47.906;1.892;2022-11-27T12:59:03;4.55;;;2.97;;
49237;SDS011;35069;47.906;1.892;2022-11-27T13:01:46;5.75;;;2.55;;
49237;SDS011;35069;47.906;1.892;2022-11-27T13:04:18;4.82;;;2.25;;
49237;SDS011;35069;47.906;1.892;2022-11-27T13:07:05;2.08;;;1.67;;
49237;SDS011;35069;47.906;1.892;2022-11-27T13:12:12;3.38;;;1.70;;
49237;SDS011;35069;47.906;1.892;2022-11-27T13:14:44;5.88;;;3.08;;
49237;SDS011;35069;47.906;1.892;2022-11-27T13:17:15;3.45;;;1.85;;
49237;SDS011;35069;47.906;1.892;2022-11-27T13:19:48;8.32;;;3.13;;
49237;SDS011;35069;47.906;1.892;2022-11-27T13:22:16;5.47;;;2.83;;
49237;SDS011;35069;47.906;1.892;2022-11-27T13:24:51;3.55;;;2.42;;
49237;SDS011;35069;47.906;1.892;2022-11-27T13:27:22;2.22;;;1.83;;
49237;SDS011;35069;47.906;1.892;2022-11-27T13:29:58;3.03;;;1.98;;
49237;SDS011;35069;47.906;1.892;2022-11-27T13:32:30;3.38;;;2.03;;
49237;SDS011;35069;47.906;1.892;2022-11-27T13:35:01;6.38;;;2.78;;
49237;SDS011;35069;47.906;1.892;2022-11-27T13:37:32;5.68;;;1.63;;
49237;SDS011;35069;47.906;1.892;2022-11-27T13:42:32;3.72;;;1.88;;
49237;SDS011;35069;47.906;1.892;2022-11-27T13:45:01;8.30;;;3.08;;
49237;SDS011;35069;47.906;1.892;2022-11-27T13:47:37;3.88;;;2.10;;
49237;SDS011;35069;47.906;1.892;2022-11-27T13:50:09;3.20;;;2.53;;
49237;SDS011;35069;47.906;1.892;2022-11-27T13:52:37;7.60;;;3.33;;
49237;SDS011;35069;47.906;1.892;2022-11-27T13:55:29;4.47;;;2.92;;
49237;SDS011;35069;47.906;1.892;2022-11-27T13:58:00;2.42;;;2.13;;
49237;SDS011;35069;47.906;1.892;2022-11-27T14:00:42;4.72;;;2.80;;
49237;SDS011;35069;47.906;1.892;2022-11-27T14:05:48;3.38;;;2.53;;
49237;SDS011;35069;47.906;1.892;2022-11-27T14:08:24;6.60;;;2.22;;
49237;SDS011;35069;47.906;1.892;2022-11-27T14:10:54;4.53;;;2.47;;
49237;SDS011;35069;47.906;1.892;2022-11-27T14:13:31;4.35;;;3.15;;
49237;SDS011;35069;47.906;1.892;2022-11-27T14:16:06;2.92;;;2.67;;
49237;SDS011;35069;47.906;1.892;2022-11-27T14:18:50;4.45;;;2.15;;
49237;SDS011;35069;47.906;1.892;2022-11-27T14:21:38;4.00;;;2.50;;
49237;SDS011;35069;47.906;1.892;2022-11-27T14:24:51;3.90;;;2.83;;
49237;SDS011;35069;47.906;1.892;2022-11-27T14:27:19;4.15;;;1.83;;
49237;SDS011;35069;47.906;1.892;2022-11-27T14:29:49;5.40;;;2.10;;
49237;SDS011;35069;47.906;1.892;2022-11-27T14:32:16;3.03;;;2.42;;
49237;SDS011;35069;47.906;1.892;2022-11-27T14:34:43;5.05;;;1.83;;
49237;SDS011;35069;47.906;1.892;2022-11-27T14:37:25;3.22;;;2.10;;
49237;SDS011;35069;47.906;1.892;2022-11-27T14:39:52;4.45;;;2.75;;
49237;SDS011;35069;47.906;1.892;2022-11-27T14:42:22;2.78;;;2.22;;
49237;SDS011;35069;47.906;1.892;2022-11-27T14:45:03;3.20;;;2.58;;
49237;SDS011;35069;47.906;1.892;2022-11-27T14:47:31;5.25;;;2.78;;
49237;SDS011;35069;47.906;1.892;2022-11-27T14:50:06;2.83;;;2.05;;
49237;SDS011;35069;47.906;1.892;2022-11-27T14:52:35;4.15;;;2.72;;
49237;SDS011;35069;47.906;1.892;2022-11-27T14:55:03;4.95;;;3.10;;
49237;SDS011;35069;47.906;1.892;2022-11-27T14:57:33;5.85;;;3.00;;
49237;SDS011;35069;47.906;1.892;2022-11-27T15:00:00;5.53;;;3.10;;
49237;SDS011;35069;47.906;1.892;2022-11-27T15:02:29;4.82;;;3.38;;
49237;SDS011;35069;47.906;1.892;2022-11-27T15:05:00;5.05;;;2.97;;
49237;SDS011;35069;47.906;1.892;2022-11-27T15:07:28;8.80;;;3.70;;
49237;SDS011;35069;47.906;1.892;2022-11-27T15:09:57;10.80;;;4.40;;
49237;SDS011;35069;47.906;1.892;2022-11-27T15:12:26;8.68;;;5.38;;
49237;SDS011;35069;47.906;1.892;2022-11-27T15:17:29;6.88;;;3.90;;
49237;SDS011;35069;47.906;1.892;2022-11-27T15:19:57;6.75;;;3.58;;
49237;SDS011;35069;47.906;1.892;2022-11-27T15:22:24;4.70;;;3.10;;
49237;SDS011;35069;47.906;1.892;2022-11-27T15:24:59;6.18;;;4.13;;
49237;SDS011;35069;47.906;1.892;2022-11-27T15:27:27;6.90;;;4.15;;
49237;SDS011;35069;47.906;1.892;2022-11-27T15:32:47;5.47;;;3.47;;
49237;SDS011;35069;47.906;1.892;2022-11-27T15:35:29;12.27;;;4.38;;
49237;SDS011;35069;47.906;1.892;2022-11-27T15:38:06;4.28;;;2.85;;
49237;SDS011;35069;47.906;1.892;2022-11-27T15:43:01;6.63;;;3.70;;
49237;SDS011;35069;47.906;1.892;2022-11-27T15:45:30;8.35;;;4.65;;
49237;SDS011;35069;47.906;1.892;2022-11-27T15:47:57;8.55;;;4.38;;
49237;SDS011;35069;47.906;1.892;2022-11-27T15:50:24;6.78;;;3.50;;
49237;SDS011;35069;47.906;1.892;2022-11-27T15:52:50;4.88;;;3.15;;
49237;SDS011;35069;47.906;1.892;2022-11-27T15:55:15;7.15;;;4.22;;
49237;SDS011;35069;47.906;1.892;2022-11-27T15:57:41;5.88;;;4.20;;
49237;SDS011;35069;47.906;1.892;2022-11-27T16:00:07;6.80;;;5.25;;
49237;SDS011;35069;47.906;1.892;2022-11-27T16:02:37;8.32;;;5.85;;
49237;SDS011;35069;47.906;1.892;2022-11-27T16:05:03;7.95;;;4.90;;
49237;SDS011;35069;47.906;1.892;2022-11-27T16:07:30;12.27;;;6.00;;
49237;SDS011;35069;47.906;1.892;2022-11-27T16:09:56;8.48;;;5.35;;
49237;SDS011;35069;47.906;1.892;2022-11-27T16:12:21;8.98;;;5.57;;
49237;SDS011;35069;47.906;1.892;2022-11-27T16:14:47;7.97;;;5.03;;
49237;SDS011;35069;47.906;1.892;2022-11-27T16:17:13;11.23;;;6.70;;
49237;SDS011;35069;47.906;1.892;2022-11-27T16:19:38;11.32;;;6.53;;
49237;SDS011;35069;47.906;1.892;2022-11-27T16:22:04;17.00;;;8.73;;
49237;SDS011;35069;47.906;1.892;2022-11-27T16:24:29;12.63;;;6.65;;
49237;SDS011;35069;47.906;1.892;2022-11-27T16:26:55;15.82;;;8.55;;
49237;SDS011;35069;47.906;1.892;2022-11-27T16:29:21;21.15;;;11.13;;
49237;SDS011;35069;47.906;1.892;2022-11-27T16:31:46;10.65;;;6.78;;
49237;SDS011;35069;47.906;1.892;2022-11-27T16:34:15;17.77;;;8.27;;
49237;SDS011;35069;47.906;1.892;2022-11-27T16:36:41;12.38;;;7.60;;
49237;SDS011;35069;47.906;1.892;2022-11-27T16:39:07;10.55;;;8.05;;
49237;SDS011;35069;47.906;1.892;2022-11-27T16:41:34;15.90;;;9.32;;
49237;SDS011;35069;47.906;1.892;2022-11-27T16:44:00;12.77;;;8.68;;